createdAt,value
2023-03-04T00:02:19.407Z,6.25
2023-03-04T00:04:46.406Z,6.03
2023-03-04T00:07:17.023Z,6.88
2023-03-04T00:09:45.312Z,6.40
2023-03-04T00:12:13.360Z,7.38
2023-03-04T00:14:40.606Z,6.22
2023-03-04T00:17:07.862Z,6.93
2023-03-04T00:19:35.671Z,6.75
2023-03-04T00:22:04.538Z,7.32
2023-03-04T00:24:32.155Z,5.78
2023-03-04T00:26:59.382Z,6.68
2023-03-04T00:29:27.013Z,6.22
2023-03-04T00:31:54.408Z,6.40
2023-03-04T00:34:21.635Z,7.78
2023-03-04T00:36:48.639Z,6.60
2023-03-04T00:39:15.961Z,6.72
2023-03-04T00:41:43.114Z,7.05
2023-03-04T00:44:10.133Z,7.18
2023-03-04T00:46:37.162Z,7.20
2023-03-04T00:49:04.341Z,8.55
2023-03-04T00:51:31.386Z,8.18
2023-03-04T00:54:00.694Z,8.50
2023-03-04T00:56:28.164Z,8.75
2023-03-04T00:58:55.465Z,8.68
2023-03-04T01:01:22.804Z,7.57
2023-03-04T01:03:49.940Z,8.80
2023-03-04T01:06:16.962Z,9.13
2023-03-04T01:08:44.099Z,8.52
2023-03-04T01:11:11.313Z,7.70
2023-03-04T01:13:38.779Z,7.90
2023-03-04T01:16:06.560Z,7.53
2023-03-04T01:18:33.827Z,7.22
2023-03-04T01:21:00.801Z,7.70
2023-03-04T01:23:27.779Z,7.35
2023-03-04T01:25:54.824Z,6.45
2023-03-04T01:28:21.798Z,6.45
2023-03-04T01:30:48.788Z,6.78
2023-03-04T01:33:16.179Z,6.38
2023-03-04T01:35:43.226Z,7.35
2023-03-04T01:38:10.313Z,6.72
2023-03-04T01:40:38.711Z,6.97
2023-03-04T01:43:06.015Z,6.75
2023-03-04T01:45:33.984Z,7.53
2023-03-04T01:48:01.001Z,7.78
2023-03-04T01:50:32.515Z,6.53
2023-03-04T01:53:00.260Z,6.72
2023-03-04T01:55:27.540Z,7.05
2023-03-04T01:57:54.728Z,7.13
2023-03-04T02:00:28.899Z,8.15
2023-03-04T02:03:01.467Z,6.53
2023-03-04T02:05:30.292Z,6.97
2023-03-04T02:07:59.969Z,5.25
2023-03-04T02:10:27.841Z,7.40
2023-03-04T02:12:54.931Z,7.25
2023-03-04T02:15:22.370Z,8.48
2023-03-04T02:17:50.047Z,7.65
2023-03-04T02:20:38.693Z,7.25
2023-03-04T02:23:19.542Z,5.57
2023-03-04T02:25:52.414Z,6.90
2023-03-04T02:28:19.931Z,7.95
2023-03-04T02:30:46.984Z,7.55
2023-03-04T02:33:17.895Z,7.47
2023-03-04T02:35:46.319Z,7.30
2023-03-04T02:38:13.740Z,7.07
2023-03-04T02:40:45.853Z,7.60
2023-03-04T02:43:13.168Z,8.48
2023-03-04T02:45:40.046Z,7.55
2023-03-04T02:48:08.137Z,6.25
2023-03-04T02:50:41.121Z,7.80
2023-03-04T02:53:08.231Z,7.90
2023-03-04T02:55:35.823Z,4.07
2023-03-04T02:58:03.221Z,6.80
2023-03-04T03:00:31.151Z,5.78
2023-03-04T03:02:58.587Z,7.10
2023-03-04T03:05:30.029Z,6.75
2023-03-04T03:07:57.353Z,6.82
2023-03-04T03:10:25.230Z,7.85
2023-03-04T03:12:52.245Z,5.75
2023-03-04T03:15:19.997Z,5.80
2023-03-04T03:17:46.950Z,5.85
2023-03-04T03:20:14.532Z,6.03
2023-03-04T03:22:42.426Z,7.40
2023-03-04T03:25:11.330Z,6.63
2023-03-04T03:27:38.524Z,6.82
2023-03-04T03:30:07.357Z,6.38
2023-03-04T03:32:34.367Z,6.43
2023-03-04T03:35:01.357Z,6.30
2023-03-04T03:37:30.746Z,6.78
2023-03-04T03:39:57.707Z,7.45
2023-03-04T03:42:24.742Z,5.47
2023-03-04T03:44:51.768Z,6.53
2023-03-04T03:47:18.876Z,5.80
2023-03-04T03:49:45.871Z,7.38
2023-03-04T03:52:12.894Z,6.90
2023-03-04T03:54:39.978Z,6.80
2023-03-04T03:57:07.081Z,5.22
2023-03-04T03:59:34.121Z,6.47
2023-03-04T04:02:01.423Z,6.45
2023-03-04T04:04:28.993Z,6.82
2023-03-04T04:06:56.000Z,6.85
2023-03-04T04:09:23.002Z,6.65
2023-03-04T04:11:50.065Z,6.40
2023-03-04T04:14:17.135Z,5.93
2023-03-04T04:16:44.161Z,5.35
2023-03-04T04:19:18.216Z,5.53
2023-03-04T04:21:45.660Z,5.70
2023-03-04T04:24:12.872Z,5.78
2023-03-04T04:26:40.144Z,7.43
2023-03-04T04:29:07.641Z,6.07
2023-03-04T04:31:35.209Z,6.13
2023-03-04T04:34:02.428Z,6.15
2023-03-04T04:36:29.534Z,6.55
2023-03-04T04:38:57.747Z,6.28
2023-03-04T04:41:28.869Z,6.35
2023-03-04T04:43:56.162Z,6.35
2023-03-04T04:46:23.518Z,6.13
2023-03-04T04:48:50.668Z,6.85
2023-03-04T04:51:18.023Z,6.57
2023-03-04T04:53:45.052Z,6.00
2023-03-04T04:56:17.848Z,5.85
2023-03-04T04:58:45.904Z,6.10
2023-03-04T05:01:14.357Z,6.18
2023-03-04T05:03:42.179Z,5.03
2023-03-04T05:06:11.489Z,6.00
2023-03-04T05:08:39.176Z,5.82
2023-03-04T05:11:06.900Z,5.82
2023-03-04T05:13:34.037Z,4.43
2023-03-04T05:16:03.702Z,4.45
2023-03-04T05:18:30.938Z,4.57
2023-03-04T05:21:00.269Z,5.13
2023-03-04T05:23:29.456Z,5.93
2023-03-04T05:25:56.528Z,6.05
2023-03-04T05:28:24.274Z,5.72
2023-03-04T05:30:54.234Z,4.68
2023-03-04T05:33:21.793Z,4.63
2023-03-04T05:35:50.720Z,5.72
2023-03-04T05:38:20.208Z,5.95
2023-03-04T05:40:55.729Z,5.40
2023-03-04T05:43:26.495Z,5.15
2023-03-04T05:45:56.123Z,5.03
2023-03-04T05:48:23.846Z,6.53
2023-03-04T05:50:57.671Z,5.90
2023-03-04T05:53:25.424Z,5.10
2023-03-04T05:55:52.950Z,4.90
2023-03-04T05:58:20.086Z,4.68
2023-03-04T06:00:47.307Z,4.97
2023-03-04T06:03:17.549Z,5.32
2023-03-04T06:05:45.998Z,5.85
2023-03-04T06:08:13.900Z,4.88
2023-03-04T06:10:43.689Z,5.40
2023-03-04T06:13:11.176Z,5.10
2023-03-04T06:15:39.842Z,5.05
2023-03-04T06:18:09.970Z,5.20
2023-03-04T06:20:37.403Z,5.53
2023-03-04T06:23:05.189Z,4.90
2023-03-04T06:25:32.525Z,4.93
2023-03-04T06:27:59.623Z,4.97
2023-03-04T06:30:27.039Z,4.65
2023-03-04T06:32:54.121Z,4.60
2023-03-04T06:35:21.137Z,4.80
2023-03-04T06:37:48.442Z,4.50
2023-03-04T06:40:15.524Z,5.25
2023-03-04T06:42:42.661Z,5.32
2023-03-04T06:45:11.055Z,4.68
2023-03-04T06:47:38.337Z,4.60
2023-03-04T06:50:06.594Z,5.70
2023-03-04T06:52:33.808Z,5.60
2023-03-04T06:55:01.218Z,4.50
2023-03-04T06:57:33.413Z,5.00
2023-03-04T07:00:11.424Z,4.47
2023-03-04T07:02:41.369Z,4.78
2023-03-04T07:05:10.751Z,5.65
2023-03-04T07:07:38.782Z,4.80
2023-03-04T07:10:06.677Z,4.85
2023-03-04T07:12:33.754Z,5.32
2023-03-04T07:15:00.794Z,5.65
2023-03-04T07:17:27.921Z,5.05
2023-03-04T07:19:54.962Z,4.50
2023-03-04T07:22:21.943Z,4.65
2023-03-04T07:24:48.980Z,4.95
2023-03-04T07:27:15.963Z,5.00
2023-03-04T07:29:42.971Z,4.57
2023-03-04T07:32:10.695Z,5.43
2023-03-04T07:34:37.870Z,4.05
2023-03-04T07:37:04.957Z,4.55
2023-03-04T07:39:32.329Z,4.70
2023-03-04T07:41:59.463Z,4.35
2023-03-04T07:44:36.154Z,4.35
2023-03-04T07:47:17.057Z,4.53
2023-03-04T07:49:46.897Z,3.70
2023-03-04T07:52:14.859Z,4.80
2023-03-04T07:54:42.594Z,5.35
2023-03-04T07:57:09.605Z,4.88
2023-03-04T07:59:36.693Z,4.82
2023-03-04T08:02:03.882Z,4.55
2023-03-04T08:04:31.363Z,5.13
2023-03-04T08:06:58.459Z,4.53
2023-03-04T08:09:25.538Z,4.38
2023-03-04T08:11:52.655Z,4.80
2023-03-04T08:14:20.143Z,4.40
2023-03-04T08:16:47.112Z,4.57
2023-03-04T08:19:14.086Z,6.07
2023-03-04T08:21:41.218Z,4.45
2023-03-04T08:24:09.111Z,4.80
2023-03-04T08:26:43.017Z,5.03
2023-03-04T08:29:13.539Z,5.78
2023-03-04T08:31:40.658Z,4.70
2023-03-04T08:34:10.440Z,4.88
2023-03-04T08:36:37.544Z,5.18
2023-03-04T08:39:05.821Z,5.25
2023-03-04T08:41:33.726Z,5.28
2023-03-04T08:44:01.614Z,5.25
2023-03-04T08:46:29.045Z,5.25
2023-03-04T08:48:56.249Z,5.15
2023-03-04T08:51:23.470Z,4.97
2023-03-04T08:53:50.451Z,5.97
2023-03-04T08:56:17.897Z,6.78
2023-03-04T08:58:47.562Z,4.88
2023-03-04T09:01:15.422Z,4.70
2023-03-04T09:03:43.389Z,4.93
2023-03-04T09:06:17.825Z,5.60
2023-03-04T09:08:45.991Z,4.53
2023-03-04T09:11:13.758Z,4.85
2023-03-04T09:13:43.231Z,4.88
2023-03-04T09:16:12.464Z,4.68
2023-03-04T09:18:39.978Z,5.28
2023-03-04T09:21:08.773Z,4.80
2023-03-04T09:23:41.761Z,4.15
2023-03-04T09:26:26.543Z,3.75
2023-03-04T09:28:56.518Z,4.15
2023-03-04T09:31:26.915Z,3.70
2023-03-04T09:33:55.439Z,4.57
2023-03-04T09:36:23.414Z,4.18
2023-03-04T09:38:50.518Z,4.30
2023-03-04T09:41:24.776Z,3.78
2023-03-04T09:43:54.388Z,3.85
2023-03-04T09:46:37.802Z,3.70
2023-03-04T09:49:07.302Z,3.22
2023-03-04T09:51:56.992Z,3.55
2023-03-04T09:54:57.783Z,3.53
2023-03-04T09:57:43.283Z,3.60
2023-03-04T10:00:20.180Z,3.50
2023-03-04T10:03:05.690Z,4.13
2023-03-04T10:05:36.957Z,5.13
2023-03-04T10:08:30.951Z,3.63
2023-03-04T10:10:59.986Z,3.42
2023-03-04T10:13:39.032Z,3.45
2023-03-04T10:16:11.709Z,3.00
2023-03-04T10:18:52.145Z,3.80
2023-03-04T10:21:44.694Z,2.97
2023-03-04T10:24:15.077Z,2.70
2023-03-04T10:26:46.298Z,3.30
2023-03-04T10:29:19.926Z,3.80
2023-03-04T10:31:47.377Z,3.60
2023-03-04T10:34:15.965Z,3.65
2023-03-04T10:37:01.749Z,3.10
2023-03-04T10:39:28.752Z,3.58
2023-03-04T10:42:03.203Z,3.80
2023-03-04T10:44:32.530Z,3.35
2023-03-04T10:46:59.696Z,3.60
2023-03-04T10:49:28.640Z,3.70
2023-03-04T10:52:04.663Z,3.80
2023-03-04T10:54:52.041Z,3.75
2023-03-04T10:57:41.762Z,3.90
2023-03-04T11:00:18.166Z,2.83
2023-03-04T11:02:47.260Z,3.72
2023-03-04T11:05:18.986Z,3.30
2023-03-04T11:07:55.592Z,3.60
2023-03-04T11:10:29.184Z,2.95
2023-03-04T11:12:57.407Z,2.35
2023-03-04T11:15:31.353Z,2.92
2023-03-04T11:18:03.061Z,2.63
2023-03-04T11:20:38.652Z,2.72
2023-03-04T11:23:14.269Z,3.20
2023-03-04T11:26:01.694Z,2.88
2023-03-04T11:28:40.865Z,3.92
2023-03-04T11:31:16.428Z,3.53
2023-03-04T11:33:57.134Z,4.28
2023-03-04T11:36:42.666Z,3.58
2023-03-04T11:39:47.147Z,4.30
2023-03-04T11:42:32.250Z,3.55
2023-03-04T11:44:59.344Z,8.57
2023-03-04T11:47:49.035Z,5.70
2023-03-04T11:50:45.752Z,4.40
2023-03-04T11:53:50.427Z,4.35
2023-03-04T11:56:30.545Z,4.47
2023-03-04T11:59:04.630Z,4.50
2023-03-04T12:01:50.129Z,5.40
2023-03-04T12:04:50.513Z,4.68
2023-03-04T12:07:39.213Z,5.03
2023-03-04T12:10:45.386Z,5.50
2023-03-04T12:14:02.335Z,5.30
2023-03-04T12:16:44.257Z,5.38
2023-03-04T12:19:35.991Z,3.80
2023-03-04T12:22:18.105Z,4.10
2023-03-04T12:25:22.159Z,4.40
2023-03-04T12:27:56.924Z,4.10
2023-03-04T12:30:45.826Z,3.72
2023-03-04T12:33:34.342Z,4.07
2023-03-04T12:36:38.571Z,3.30
2023-03-04T12:39:23.698Z,3.60
2023-03-04T12:42:22.820Z,3.72
2023-03-04T12:45:09.659Z,3.47
2023-03-04T12:47:59.475Z,6.05
2023-03-04T12:50:32.428Z,4.72
2023-03-04T12:53:33.836Z,6.35
2023-03-04T12:56:03.288Z,6.15
2023-03-04T12:58:35.958Z,4.22
2023-03-04T13:01:19.364Z,4.43
2023-03-04T13:06:32.438Z,4.15
2023-03-04T13:09:14.593Z,2.58
2023-03-04T13:12:05.019Z,4.07
2023-03-04T13:14:33.053Z,4.55
2023-03-04T13:17:02.857Z,4.18
2023-03-04T13:19:46.540Z,5.13
2023-03-04T13:22:30.682Z,4.15
2023-03-04T13:24:59.897Z,4.85
2023-03-04T13:27:49.409Z,5.10
2023-03-04T13:30:34.789Z,4.28
2023-03-04T13:33:10.981Z,4.22
2023-03-04T13:35:47.568Z,3.78
2023-03-04T13:38:34.952Z,4.53
2023-03-04T13:41:20.383Z,3.95
2023-03-04T13:43:56.949Z,4.38
2023-03-04T13:46:24.292Z,3.67
2023-03-04T13:48:57.330Z,3.47
2023-03-04T13:51:41.590Z,5.35
2023-03-04T13:54:26.892Z,5.97
2023-03-04T13:57:20.445Z,6.43
2023-03-04T13:59:55.812Z,4.82
2023-03-04T14:02:26.221Z,4.50
2023-03-04T14:05:02.308Z,5.07
2023-03-04T14:07:37.404Z,5.88
2023-03-04T14:10:26.388Z,7.30
2023-03-04T14:12:56.845Z,8.57
2023-03-04T14:15:29.803Z,7.80
2023-03-04T14:17:59.320Z,6.90
2023-03-04T14:20:28.014Z,9.07
2023-03-04T14:22:55.404Z,8.80
2023-03-04T14:25:26.181Z,16.02
2023-03-04T14:28:17.079Z,13.43
2023-03-04T14:30:55.981Z,7.68
2023-03-04T14:33:29.193Z,9.73
2023-03-04T14:35:59.391Z,9.10
2023-03-04T14:38:36.981Z,8.20
2023-03-04T14:41:17.744Z,6.50
2023-03-04T14:44:08.749Z,7.45
2023-03-04T14:46:45.011Z,7.03
2023-03-04T14:49:15.630Z,5.93
2023-03-04T14:51:52.673Z,8.48
2023-03-04T14:54:38.946Z,9.50
2023-03-04T14:57:35.690Z,8.07
2023-03-04T15:00:15.589Z,7.75
2023-03-04T15:02:42.952Z,7.43
2023-03-04T15:05:17.188Z,7.45
2023-03-04T15:07:52.025Z,9.07
2023-03-04T15:10:26.720Z,8.50
2023-03-04T15:12:56.641Z,7.18
2023-03-04T15:16:00.590Z,7.38
2023-03-04T15:18:30.291Z,10.07
2023-03-04T15:21:00.193Z,11.02
2023-03-04T15:23:29.407Z,10.32
2023-03-04T15:26:03.253Z,7.97
2023-03-04T15:28:41.108Z,8.77
2023-03-04T15:31:19.389Z,9.55
2023-03-04T15:33:46.870Z,10.20
2023-03-04T15:36:20.907Z,10.05
2023-03-04T15:38:50.574Z,7.97
2023-03-04T15:41:26.399Z,7.75
2023-03-04T15:43:57.495Z,8.30
2023-03-04T15:46:28.166Z,7.97
2023-03-04T15:48:55.388Z,7.03
2023-03-04T15:51:23.394Z,8.65
2023-03-04T15:53:59.548Z,7.68
2023-03-04T15:56:44.676Z,7.15
2023-03-04T15:59:14.429Z,7.15
2023-03-04T16:01:42.092Z,8.07
2023-03-04T16:04:19.723Z,8.30
2023-03-04T16:06:48.960Z,8.02
2023-03-04T16:09:19.873Z,7.78
2023-03-04T16:11:47.941Z,9.75
2023-03-04T16:14:16.212Z,12.18
2023-03-04T16:16:44.635Z,10.40
2023-03-04T16:19:14.773Z,12.23
2023-03-04T16:21:41.980Z,13.35
2023-03-04T16:24:17.453Z,10.65
2023-03-04T16:26:44.423Z,8.82
2023-03-04T16:29:11.763Z,8.70
2023-03-04T16:31:38.758Z,19.92
2023-03-04T16:34:05.748Z,18.92
2023-03-04T16:36:32.785Z,19.23
2023-03-04T16:39:04.746Z,25.88
2023-03-04T16:41:32.302Z,24.75
2023-03-04T16:44:00.884Z,23.30
2023-03-04T16:46:28.576Z,22.08
2023-03-04T16:48:56.115Z,22.08
2023-03-04T16:51:40.271Z,20.33
2023-03-04T16:54:12.822Z,17.45
2023-03-04T16:56:40.249Z,14.80
2023-03-04T16:59:07.389Z,14.82
2023-03-04T17:01:36.901Z,11.95
2023-03-04T17:04:04.310Z,12.13
2023-03-04T17:06:35.468Z,12.82
2023-03-04T17:09:11.056Z,11.82
2023-03-04T17:11:39.048Z,12.23
2023-03-04T17:14:06.587Z,10.73
2023-03-04T17:16:33.844Z,10.52
2023-03-04T17:19:00.888Z,11.70
2023-03-04T17:21:28.142Z,19.80
2023-03-04T17:23:55.443Z,13.98
2023-03-04T17:26:23.188Z,11.77
2023-03-04T17:28:51.773Z,11.88
2023-03-04T17:31:20.337Z,11.65
2023-03-04T17:33:48.277Z,12.23
2023-03-04T17:36:18.099Z,10.18
2023-03-04T17:38:45.754Z,10.00
2023-03-04T17:41:16.249Z,9.10
2023-03-04T17:43:54.892Z,8.57
2023-03-04T17:46:24.967Z,8.40
2023-03-04T17:48:57.294Z,10.20
2023-03-04T17:51:32.762Z,10.90
2023-03-04T17:54:01.629Z,15.88
2023-03-04T17:56:32.992Z,14.73
2023-03-04T17:59:01.778Z,12.07
2023-03-04T18:01:28.987Z,18.80
2023-03-04T18:03:59.299Z,19.33
2023-03-04T18:06:28.865Z,16.73
2023-03-04T18:08:55.968Z,12.95
2023-03-04T18:11:25.606Z,13.15
2023-03-04T18:13:54.860Z,10.38
2023-03-04T18:16:27.164Z,8.90
2023-03-04T18:18:58.068Z,9.73
2023-03-04T18:21:26.520Z,8.45
2023-03-04T18:23:54.138Z,9.10
2023-03-04T18:26:24.076Z,7.35
2023-03-04T18:28:55.641Z,8.00
2023-03-04T18:31:25.524Z,7.13
2023-03-04T18:33:53.119Z,7.72
2023-03-04T18:36:20.504Z,8.45
2023-03-04T18:38:47.580Z,7.68
2023-03-04T18:41:16.026Z,8.38
2023-03-04T18:43:43.252Z,7.72
2023-03-04T18:46:38.517Z,7.90
2023-03-04T18:49:09.029Z,7.72
2023-03-04T18:51:36.065Z,6.60
2023-03-04T18:54:03.366Z,7.03
2023-03-04T18:56:40.693Z,6.75
2023-03-04T18:59:11.702Z,6.22
2023-03-04T19:01:39.032Z,5.90
2023-03-04T19:04:06.646Z,7.13
2023-03-04T19:06:47.379Z,6.50
2023-03-04T19:09:29.986Z,6.40
2023-03-04T19:12:06.869Z,6.72
2023-03-04T19:14:40.918Z,6.25
2023-03-04T19:17:08.093Z,5.45
2023-03-04T19:19:38.246Z,5.10
2023-03-04T19:22:14.443Z,5.93
2023-03-04T19:24:47.425Z,5.18
2023-03-04T19:27:18.620Z,6.95
2023-03-04T19:29:45.584Z,5.45
2023-03-04T19:32:12.629Z,5.90
2023-03-04T19:34:39.795Z,5.15
2023-03-04T19:37:06.881Z,5.57
2023-03-04T19:39:33.884Z,6.45
2023-03-04T19:42:01.129Z,5.90
2023-03-04T19:44:28.081Z,5.50
2023-03-04T19:46:55.139Z,4.43
2023-03-04T19:49:24.978Z,4.78
2023-03-04T19:51:52.000Z,5.50
2023-03-04T19:54:18.973Z,4.32
2023-03-04T19:56:46.189Z,5.82
2023-03-04T19:59:17.099Z,4.65
2023-03-04T20:01:45.865Z,4.90
2023-03-04T20:04:15.700Z,4.47
2023-03-04T20:08:21.166Z,6.03
2023-03-04T20:10:42.308Z,5.60
2023-03-04T20:13:11.756Z,5.68
2023-03-04T20:15:46.925Z,5.38
2023-03-04T20:18:17.209Z,6.03
2023-03-04T20:20:49.012Z,6.68
2023-03-04T20:23:20.454Z,6.93
2023-03-04T20:25:47.775Z,6.82
2023-03-04T20:28:14.822Z,6.25
2023-03-04T20:30:41.858Z,5.05
2023-03-04T20:33:08.926Z,6.20
2023-03-04T20:35:36.194Z,4.15
2023-03-04T20:38:03.663Z,7.30
2023-03-04T20:40:30.654Z,6.72
2023-03-04T20:42:57.631Z,6.93
2023-03-04T20:45:25.121Z,6.72
2023-03-04T20:47:52.115Z,7.53
2023-03-04T20:50:19.158Z,6.53
2023-03-04T20:52:47.250Z,6.25
2023-03-04T20:55:14.239Z,8.13
2023-03-04T20:57:41.268Z,6.65
2023-03-04T21:00:09.192Z,7.22
2023-03-04T21:02:36.795Z,7.80
2023-03-04T21:05:04.134Z,7.72
2023-03-04T21:07:31.404Z,7.53
2023-03-04T21:09:58.431Z,7.03
2023-03-04T21:12:26.201Z,8.05
2023-03-04T21:14:53.252Z,7.03
2023-03-04T21:17:20.292Z,4.90
2023-03-04T21:19:47.489Z,7.07
2023-03-04T21:22:20.111Z,8.23
2023-03-04T21:24:48.159Z,10.23
2023-03-04T21:27:16.932Z,9.20
2023-03-04T21:29:44.606Z,8.70
2023-03-04T21:32:24.264Z,8.55
2023-03-04T21:34:54.126Z,8.30
2023-03-04T21:37:23.936Z,8.55
2023-03-04T21:39:51.349Z,7.95
2023-03-04T21:42:18.670Z,7.18
2023-03-04T21:44:49.636Z,8.88
2023-03-04T21:47:18.213Z,9.10
2023-03-04T21:49:45.573Z,8.27
2023-03-04T21:52:13.358Z,8.07
2023-03-04T21:54:40.506Z,9.18
2023-03-04T21:57:07.618Z,8.57
2023-03-04T21:59:34.586Z,7.85
2023-03-04T22:02:02.458Z,7.07
2023-03-04T22:04:29.606Z,7.65
2023-03-04T22:06:56.571Z,7.90
2023-03-04T22:09:23.481Z,7.80
2023-03-04T22:11:50.796Z,5.88
2023-03-04T22:14:17.809Z,8.38
2023-03-04T22:16:54.513Z,8.15
2023-03-04T22:19:28.349Z,8.50
2023-03-04T22:21:55.629Z,7.95
2023-03-04T22:24:23.051Z,7.07
2023-03-04T22:26:50.144Z,7.57
2023-03-04T22:29:17.129Z,7.60
2023-03-04T22:31:45.796Z,6.82
2023-03-04T22:34:15.083Z,7.35
2023-03-04T22:36:44.665Z,8.63
2023-03-04T22:39:14.124Z,6.95
2023-03-04T22:41:41.250Z,7.57
2023-03-04T22:44:08.432Z,8.48
2023-03-04T22:46:38.385Z,8.13
2023-03-04T22:49:10.255Z,7.60
2023-03-04T22:51:38.752Z,9.40
2023-03-04T22:54:05.772Z,8.45
2023-03-04T22:56:33.459Z,8.45
2023-03-04T22:59:00.462Z,6.97
2023-03-04T23:01:27.539Z,8.20
2023-03-04T23:03:54.794Z,6.70
2023-03-04T23:06:25.389Z,7.43
2023-03-04T23:08:53.134Z,7.45
2023-03-04T23:11:31.502Z,7.03
2023-03-04T23:13:59.269Z,7.00
2023-03-04T23:16:28.080Z,6.15
2023-03-04T23:18:56.566Z,5.63
2023-03-04T23:21:34.261Z,6.13
2023-03-04T23:24:02.774Z,5.72
2023-03-04T23:26:36.729Z,5.57
2023-03-04T23:29:05.335Z,6.00
2023-03-04T23:31:34.566Z,5.22
2023-03-04T23:34:03.083Z,6.00
2023-03-04T23:36:35.874Z,5.93
2023-03-04T23:39:04.241Z,4.68
2023-03-04T23:41:33.041Z,5.32
2023-03-04T23:44:01.290Z,5.32
2023-03-04T23:46:28.772Z,5.72
2023-03-04T23:48:56.158Z,4.78
2023-03-04T23:51:26.694Z,5.45
2023-03-04T23:53:54.444Z,5.63
2023-03-04T23:56:24.265Z,5.85
2023-03-04T23:58:51.735Z,5.65
